• Join FlightAware (Why Join?)
  • Login
  • US Flag 
07:28PM EDT


 

Airport Tracker/Info


-or-


 

Live Flight TrackerFlight Track Log ✈ UAL4335 ✈ 18-May-2013 ✈ KPIT - KEWR

Flight Track Log - Related Links

Times and Time Zones

All times are in EDT time to prevent confusion due to time zone crossing. See the UAL4335 flight status page for this flight to view local times or setup timezone preferences in your user account.

Time Position Orientation Groundspeed Altitude Reporting Facility
EDT Latitude Longitude Course Direction KTS MPH feet Rate Location/Type
06:06PM 40.5042 -80.1408 42° Northeast 217 250 3,800  Level Cleveland Center
06:07PM 40.5708 -80.1267 North 241 277 5,900 2,400 Climbing Cleveland Center
06:08PM 40.7440 -80.2056 North  Level FlightAware Approximate
06:08PM 40.6372 -80.0742 31° Northeast 252 290 8,700  Level Cleveland Center
06:09PM 40.8280 -80.1887 37° Northeast  Level FlightAware Approximate
06:09PM 40.6975 -80.0217 33° Northeast 257 296 11,900  Level Cleveland Center
06:10PM 40.8946 -80.1147 41° Northeast  Level FlightAware Approximate
06:10PM 40.7597 -79.9692 33° Northeast 262 302 14,500  Level Cleveland Center
06:11PM 40.9597 -80.0384 42° Northeast  Level FlightAware Approximate
06:11PM 40.8242 -79.9164 32° Northeast 262 302 16,700  Level Cleveland Center
06:12PM 41.0241 -79.9611 42° Northeast  Level FlightAware Approximate
06:12PM 40.8883 -79.8608 33° Northeast 268 308 18,400  Level Cleveland Center
06:13PM 40.9608 -79.8022 31° Northeast 279 321 19,700 900 Climbing Cleveland Center
06:14PM 41.0417 -79.7325 33° Northeast 310 357 20,300 780 Climbing Cleveland Center
06:15PM 41.1392 -79.6486 33° Northeast 349 402 21,300 1,080 Climbing Cleveland Center
06:16PM 41.2239 -79.5783 32° Northeast 370 426 22,500 1,380 Climbing Cleveland Center
06:17PM 41.3150 -79.5022 32° Northeast 383 441 24,100 1,200 Climbing Cleveland Center
06:18PM 41.4142 -79.4147 33° Northeast 383 441 25,000 420 Climbing Cleveland Center
06:19PM 41.5050 -79.3383 32° Northeast 383 441 25,000  Level Cleveland Center
06:20PM 41.5814 -79.2703 34° Northeast 361 415 25,000  Level Cleveland Center
06:21PM 41.6578 -79.2047 33° Northeast 336 387 25,000  Level Cleveland Center
06:22PM 41.7278 -79.1392 35° Northeast 315 362 25,000  Level Cleveland Center
06:23PM 41.7958 -79.0764 35° Northeast 302 348 25,000  Level Cleveland Center
06:24PM 41.8361 -78.9694 63° Northeast 293 337 25,000  Level Cleveland Center
06:25PM 41.7967 -78.8397 112° Southeast 299 344 25,000  Level Cleveland Center
06:26PM 41.7406 -78.7158 121° Southeast 333 383 25,000  Level Cleveland Center
06:27PM 41.6986 -78.5781 112° Southeast 372 428 25,000  Level Cleveland Center
06:28PM 41.6586 -78.4431 112° Southeast 386 444 25,000  Level Cleveland Center
06:29PM 41.6136 -78.3044 113° Southeast 391 450 25,000  Level New York Center
06:30PM 41.5669 -78.1522 112° Southeast 416 479 25,000  Level New York Center
06:31PM 41.5208 -77.9892 111° Southeast 446 513 25,000  Level New York Center
06:32PM 41.4911 -77.8225 103° East 465 535 25,000  Level New York Center
06:33PM 41.4678 -77.6511 100° East 465 535 25,000  Level New York Center
06:34PM 41.4425 -77.4767 101° East 465 535 25,000  Level New York Center
06:35PM 41.4164 -77.3108 102° East 465 535 25,000  Level New York Center
06:36PM 41.3919 -77.1425 101° East 465 535 25,000  Level New York Center
06:37PM 41.3658 -76.9714 101° East 460 529 25,000  Level New York Center
06:38PM 41.3411 -76.8033 101° East 460 529 25,000  Level New York Center
06:39PM 41.2975 -76.6308 109° East 470 541 25,000 -720 Level New York Center
06:40PM 41.2517 -76.4642 110° East 475 547 23,600 -1,860 Descending New York Center
06:41PM 41.2072 -76.3031 110° East 475 547 21,400 -2,520 Descending New York Center
06:42PM 41.1686 -76.1456 108° East 470 541 18,700 -1,920 Descending New York Center
06:43PM 41.1217 -75.9822 111° Southeast 433 498 17,600 -1,800 Descending New York Center
06:44PM 41.0842 -75.8389 109° East 418 481 15,200 -2,280 Descending New York Center
06:45PM 41.0464 -75.6986 110° East 407 468 13,100 -1,140 Descending New York Center
06:46PM 41.0194 -75.5947 109° East 363 418 13,000 -420 Descending New York Center
06:47PM 40.9864 -75.4825 111° Southeast 333 383 12,300 -1,260 Descending New York Center
06:48PM 40.9553 -75.3758 111° Southeast 312 359 10,600 -1,680 Descending New York Center
06:49PM 40.9258 -75.2750 111° Southeast 302 348 8,900 -1,680 Descending New York Center
06:50PM 40.8944 -75.1631 110° East 292 336 7,200 -960 Descending New York Center
06:51PM 40.8669 -75.0653 110° East 292 336 7,000 -120 Descending New York Center
06:52PM 40.8392 -74.9675 111° Southeast 292 336 7,000  Level New York Center
06:53PM 40.8136 -74.8644 108° East 287 330 7,000 -480 Level New York Center
06:54PM 40.7936 -74.7783 107° East 287 330 6,100 -540 Descending New York Center
06:55PM 40.7742 -74.6731 104° East 276 318 6,000 -240 Descending New York Center
06:56PM 40.8119 -74.6014 55° Northeast 248 285 5,700 -540 Descending New York Center
06:57PM 40.8333 -74.5500 61° Northeast 270 311 5,300 -480 Descending New York TRACON
06:58PM 40.8667 -74.4833 57° Northeast 240 276 5,100 -240 Descending New York TRACON
06:58PM 40.8917 -74.4519 44° Northeast 244 281 5,000 -120 Descending New York Center
06:59PM 40.9111 -74.3625 74° East 227 261 5,000  Level New York Center
07:00PM 40.9167 -74.3167 81° East 235 270 5,000 -660 Level New York TRACON
07:01PM 40.9167 -74.2333 90° East 229 264 4,100 -720 Descending New York TRACON
07:02PM 40.8828 -74.1250 112° Southeast 215 247 3,300 -480 Descending New York Center
07:03PM 40.8503 -74.0906 141° Southeast 180 207 3,000 -420 Descending New York Center
07:04PM 40.8333 -74.0833 162° South 161 185 2,700 -720 Descending New York TRACON